To NAV CANADA Home Page Login to a new session Search on AWWS site Feedback and Comments Disclaimer Vers la page française équivalente Tips FAQ What's new on the site To the Forecasts and Observations / NOTAM section To "File a Flight Plan" website Publications and other links Update of the User's profile FIC Telephone Numbers My Weather Data Folder Route Weather Data Regional Weather Data Local Weather Data To the Forecasts and Observations / NOTAM section
Request Generated 05/25/2017 at 01:17:26 UTC . Weather information available at that time is displayed.

METAR/TAF

FREDERICTON INTL/NB    (show WxCam)

METAR CYFC 250100Z AUTO 05009KT 9SM CLR 15/11 A2986 RMK SLP113
DENSITY ALT 100FT=
METAR CYFC 250000Z AUTO 05008KT 9SM BKN080 OVC092 18/12 A2985 RMK
SLP109 DENSITY ALT 400FT=
SPECI CYFC 242318Z AUTO 05011KT 030V180 9SM BKN080 OVC099 19/11 A2983
RMK PRESRR SLP101 DENSITY ALT 600FT=
METAR CYFC 242300Z AUTO 00000KT 9SM OVC095 19/14 A2981 RMK SLP095
DENSITY ALT 700FT=

TAF CYFC 242339Z 2500/2512 VRB03KT P6SM BKN090 TEMPO 2500/2502 P6SM
-SHRA
FM250200 04007KT P6SM SCT050 TEMPO 2502/2511 4SM BR PROB30
2502/2511 11/2SM BR
FM251100 05008KT P6SM BKN020
RMK FCST BASED ON AUTO OBS. NXT FCST BY 250600Z=
Your time UTC time
Weather data provided by Environment Canada and NAV CANADA